Adventure Hornblower — WDA3017 — position and weather

sailwx.info

Track history (hours):
 
Tides and Currents Weather Stations Pressure Air Temp Water Temp Dewpoint Dewpoint Depression Visibility Wind Speed Wind Dir Waves Ship Positions

Adventure Hornblower

Owner: Hornblower Cruises and Events, San Diego, CA. More information available from US FCC via Universal Licensing System and Coast Guard Vessel Documentation Center.

Last reported at 2018-Jun-25 17:30 UTC. Time now 2018-Jun-25 17:51 UTC.
Position N 32°42' W 117°14'.

Length 49 m; draft 1.8 m.

Type: Passenger vessel. MMSI: 366793760.

Date/timePositionNaut miles runAvg speedWind from/ knotsBaromVisibWave heightAir tempDewpointWater temp
2018-Jun-25 17:30N 32°42' W 117°14'3 3.5
2018-Jun-25 16:34N 32°43' W 117°10'0 3.6
2018-Jun-25 16:30N 32°43' W 117°11'0 0.0
2018-Jun-25 03:28N 32°43' W 117°11'0 0.4
2018-Jun-25 02:57N 32°43' W 117°10'3 5.7
2018-Jun-25 02:29N 32°41' W 117°08'3 5.3
2018-Jun-25 02:00N 32°42' W 117°11'3 5.5
2018-Jun-25 01:31N 32°42' W 117°14'3 1.9
2018-Jun-25 00:05N 32°43' W 117°11'1 8.4
2018-Jun-24 23:58N 32°42' W 117°10'1 1.1
2018-Jun-24 23:30N 32°42' W 117°09'2 2.8
2018-Jun-24 22:51N 32°43' W 117°11'3 7.8
2018-Jun-24 22:30N 32°42' W 117°14'3 4.1
2018-Jun-24 21:43N 32°43' W 117°10'1 5.1
2018-Jun-24 21:29N 32°42' W 117°10'1 2.2
2018-Jun-24 20:53N 32°43' W 117°11'0 0.5
2018-Jun-24 20:21N 32°43' W 117°11'3 9.4
2018-Jun-24 20:01N 32°42' W 117°14'3 6.5
2018-Jun-24 19:29N 32°43' W 117°10'1 2.3
2018-Jun-24 18:59N 32°42' W 117°10'  
Track history (hours):
 
Tides and Currents Weather Stations Pressure Air Temp Water Temp Dewpoint Dewpoint Depression Visibility Wind Speed Wind Dir Waves Ship Positions

Adventure Hornblower

Owner: Hornblower Cruises and Events, San Diego, CA. More information available from US FCC via Universal Licensing System and Coast Guard Vessel Documentation Center.

Last reported at 2018-Jun-25 17:30 UTC. Time now 2018-Jun-25 17:51 UTC.
Position N 32°42' W 117°14'.

Length 49 m; draft 1.8 m.

Type: Passenger vessel. MMSI: 366793760.

Date/timePositionNaut miles runAvg speedWind from/ knotsBaromVisibWave heightAir tempDewpointWater temp
2018-Jun-25 17:30N 32°42' W 117°14'3 3.5
2018-Jun-25 16:34N 32°43' W 117°10'0 3.6
2018-Jun-25 16:30N 32°43' W 117°11'0 0.0
2018-Jun-25 03:28N 32°43' W 117°11'0 0.4
2018-Jun-25 02:57N 32°43' W 117°10'3 5.7
2018-Jun-25 02:29N 32°41' W 117°08'3 5.3
2018-Jun-25 02:00N 32°42' W 117°11'3 5.5
2018-Jun-25 01:31N 32°42' W 117°14'3 1.9
2018-Jun-25 00:05N 32°43' W 117°11'1 8.4
2018-Jun-24 23:58N 32°42' W 117°10'1 1.1
2018-Jun-24 23:30N 32°42' W 117°09'2 2.8
2018-Jun-24 22:51N 32°43' W 117°11'3 7.8
2018-Jun-24 22:30N 32°42' W 117°14'3 4.1
2018-Jun-24 21:43N 32°43' W 117°10'1 5.1
2018-Jun-24 21:29N 32°42' W 117°10'1 2.2
2018-Jun-24 20:53N 32°43' W 117°11'0 0.5
2018-Jun-24 20:21N 32°43' W 117°11'3 9.4
2018-Jun-24 20:01N 32°42' W 117°14'3 6.5
2018-Jun-24 19:29N 32°43' W 117°10'1 2.3
2018-Jun-24 18:59N 32°42' W 117°10'  

Dump ship's entire track history